TimeCST,TemperatureF,Dew PointF,Humidity,Sea Level PressureIn,VisibilityMPH,Wind Direction,Wind SpeedMPH,Gust SpeedMPH,PrecipitationIn,Events,Conditions,WindDirDegrees,DateUTC
12:12 AM,51.8,48.2,88,29.39,10.0,ESE,10.4,25.3,0.01,Rain,Light Rain,120,2013-02-26 06:12:00
12:53 AM,51.1,48.9,92,29.38,7.0,SE,11.5,19.6,0.03,Rain,Light Rain,140,2013-02-26 06:53:00
1:00 AM,51.8,48.2,88,29.38,9.0,SSE,11.5,19.6,0.00,Rain,Light Rain,150,2013-02-26 07:00:00
1:29 AM,51.8,50.0,94,29.37,10.0,SSE,6.9,16.1,0.00,Rain,Light Rain,150,2013-02-26 07:29:00
1:53 AM,52.0,51.1,97,29.37,9.0,SSE,9.2,-,0.01,Rain,Light Rain,150,2013-02-26 07:53:00
2:00 AM,51.8,51.8,100,29.37,6.0,SSE,8.1,-,0.01,Rain,Light Rain,160,2013-02-26 08:00:00
2:33 AM,51.8,51.8,100,29.37,10.0,South,8.1,-,0.04,Rain,Light Rain,170,2013-02-26 08:33:00
2:42 AM,51.8,51.8,100,29.37,10.0,SSE,6.9,-,0.04,Rain,Light Rain,160,2013-02-26 08:42:00
2:53 AM,53.1,51.1,93,29.37,10.0,SSE,6.9,-,0.04,,Overcast,160,2013-02-26 08:53:00
3:21 AM,53.6,51.8,94,29.36,10.0,South,6.9,-,N/A,,Overcast,180,2013-02-26 09:21:00
3:53 AM,52.0,50.0,93,29.36,10.0,SSE,5.8,-,N/A,,Mostly Cloudy,160,2013-02-26 09:53:00
4:53 AM,52.0,48.9,89,29.37,10.0,SSW,8.1,21.9,N/A,,Overcast,200,2013-02-26 10:53:00
5:15 AM,51.8,46.4,82,29.37,10.0,SW,11.5,21.9,N/A,,Overcast,220,2013-02-26 11:15:00
5:28 AM,50.0,44.6,82,29.38,10.0,SW,17.3,23.0,N/A,,Overcast,220,2013-02-26 11:28:00
5:53 AM,48.9,45.0,86,29.39,10.0,SW,11.5,-,N/A,,Overcast,220,2013-02-26 11:53:00
6:53 AM,48.0,45.0,89,29.40,10.0,SW,8.1,-,N/A,,Overcast,220,2013-02-26 12:53:00
7:53 AM,48.0,42.1,80,29.43,10.0,SW,15.0,19.6,N/A,,Overcast,230,2013-02-26 13:53:00
8:53 AM,46.0,39.9,79,29.46,10.0,SW,12.7,-,N/A,,Overcast,220,2013-02-26 14:53:00
9:53 AM,45.0,39.0,80,29.48,10.0,SSW,17.3,28.8,N/A,,Overcast,210,2013-02-26 15:53:00
10:53 AM,45.0,37.0,74,29.50,10.0,SW,13.8,21.9,N/A,,Overcast,220,2013-02-26 16:53:00
11:53 AM,46.0,37.0,71,29.50,10.0,SSW,16.1,23.0,N/A,,Overcast,210,2013-02-26 17:53:00
12:10 PM,44.6,37.4,76,29.50,10.0,SSW,12.7,25.3,N/A,,Overcast,210,2013-02-26 18:10:00
12:53 PM,44.1,36.0,73,29.52,10.0,SW,17.3,23.0,N/A,,Overcast,220,2013-02-26 18:53:00
1:53 PM,42.1,36.0,79,29.53,10.0,SW,17.3,26.5,0.00,,Overcast,220,2013-02-26 19:53:00
2:53 PM,41.0,37.0,86,29.56,10.0,SW,15.0,25.3,0.01,,Overcast,220,2013-02-26 20:53:00
3:07 PM,41.0,37.4,87,29.57,9.0,SW,16.1,24.2,0.00,Rain,Light Rain,220,2013-02-26 21:07:00
3:30 PM,41.0,37.4,87,29.56,10.0,SW,11.5,-,0.01,,Overcast,220,2013-02-26 21:30:00
3:53 PM,41.0,37.0,86,29.57,10.0,SW,9.2,-,0.01,,Overcast,220,2013-02-26 21:53:00
4:21 PM,39.2,35.6,87,29.58,10.0,SW,15.0,-,0.00,,Overcast,230,2013-02-26 22:21:00
4:53 PM,41.0,37.0,86,29.60,10.0,SW,11.5,-,0.00,,Overcast,220,2013-02-26 22:53:00
5:30 PM,41.0,35.6,81,29.61,10.0,WSW,8.1,-,0.00,,Overcast,250,2013-02-26 23:30:00
5:53 PM,41.0,36.0,82,29.62,10.0,WSW,11.5,-,0.00,,Overcast,250,2013-02-26 23:53:00
6:40 PM,41.0,35.6,81,29.65,10.0,WSW,16.1,24.2,0.00,,Overcast,240,2013-02-27 00:40:00
6:53 PM,41.0,34.0,76,29.67,10.0,West,15.0,24.2,0.00,,Overcast,260,2013-02-27 00:53:00
7:53 PM,41.0,34.0,76,29.70,10.0,WSW,12.7,-,N/A,,Overcast,250,2013-02-27 01:53:00
8:45 PM,41.0,33.8,76,29.72,10.0,West,12.7,-,N/A,,Overcast,260,2013-02-27 02:45:00
8:53 PM,41.0,34.0,76,29.73,10.0,West,16.1,23.0,N/A,,Overcast,260,2013-02-27 02:53:00
9:23 PM,41.0,33.8,76,29.75,10.0,West,15.0,20.7,N/A,,Overcast,270,2013-02-27 03:23:00
9:53 PM,39.9,32.0,73,29.76,10.0,West,15.0,-,N/A,,Overcast,260,2013-02-27 03:53:00
10:19 PM,39.2,32.0,75,29.76,10.0,West,13.8,24.2,N/A,,Overcast,270,2013-02-27 04:19:00
10:53 PM,39.9,32.0,73,29.77,10.0,West,12.7,-,N/A,,Overcast,260,2013-02-27 04:53:00
11:53 PM,39.9,32.0,73,29.79,10.0,West,13.8,-,N/A,,Overcast,260,2013-02-27 05:53:00